Time;durP1;ratioP1;P1;durP2;ratioP2;P2;SDS_P1;SDS_P2;PMS_P1;PMS_P2;Temp;Humidity;BMP_temperature;BMP_pressure;BME280_temperature;BME280_humidity;BME280_pressure;Samples;Min_cycle;Max_cycle;Signal;HPM_P1;HPM_P2
2023/06/22 00:01:03;;;;;;;12.75;9.05;;;;;;;20.07;100.00;98017.91;1700990;75;748817;-71
2023/06/22 00:03:34;;;;;;;11.00;7.80;;;;;;;20.09;100.00;98023.69;1710255;75;669836;-74
2023/06/22 00:06:04;;;;;;;8.70;7.15;;;;;;;20.16;100.00;98031.41;1700477;75;806448;-75
2023/06/22 00:08:34;;;;;;;14.85;8.55;;;;;;;19.99;100.00;98023.34;1710348;75;672421;-73
2023/06/22 00:11:04;;;;;;;12.35;8.55;;;;;;;20.00;100.00;98016.50;1701117;75;738047;-74
2023/06/22 00:13:37;;;;;;;10.35;8.15;;;;;;;20.02;100.00;98021.53;1709425;75;768002;-73
2023/06/22 00:16:08;;;;;;;9.60;6.70;;;;;;;20.16;100.00;98018.25;1701125;75;754715;-73
2023/06/22 00:18:38;;;;;;;10.30;7.50;;;;;;;19.99;100.00;98017.78;1708410;75;879374;-76
2023/06/22 00:21:08;;;;;;;14.25;8.55;;;;;;;19.83;100.00;98016.03;1701817;75;757335;-72
2023/06/22 00:23:38;;;;;;;14.10;8.60;;;;;;;19.85;100.00;98019.03;1708643;75;833334;-73
2023/06/22 00:26:09;;;;;;;12.50;8.30;;;;;;;19.71;100.00;98019.00;1701643;75;756143;-72
2023/06/22 00:28:41;;;;;;;14.30;9.00;;;;;;;19.67;100.00;98020.56;1710858;75;668793;-74
2023/06/22 00:31:12;;;;;;;15.80;8.60;;;;;;;19.70;100.00;98019.53;1699398;75;880822;-73
2023/06/22 00:33:42;;;;;;;13.40;8.60;;;;;;;19.72;100.00;98028.84;1710613;75;673506;-72
2023/06/22 00:36:16;;;;;;;14.25;9.25;;;;;;;19.71;100.00;98030.09;1701650;75;767735;-74
2023/06/22 00:38:46;;;;;;;11.30;8.10;;;;;;;19.76;100.00;98022.97;1707734;75;934266;-73
2023/06/22 00:41:16;;;;;;;14.85;8.70;;;;;;;19.68;100.00;98022.09;1701507;75;747648;-73
2023/06/22 00:43:49;;;;;;;11.20;8.20;;;;;;;19.73;100.00;98019.22;1710574;75;671813;-73
2023/06/22 00:46:20;;;;;;;6.50;5.75;;;;;;;19.94;100.00;98015.84;1701772;75;748376;-74
2023/06/22 00:48:50;;;;;;;6.40;5.10;;;;;;;19.95;100.00;98018.09;1709150;75;780249;-74
2023/06/22 00:51:24;;;;;;;4.75;4.35;;;;;;;19.94;100.00;98010.28;1701435;75;750484;-73
2023/06/22 00:53:54;;;;;;;3.80;3.30;;;;;;;19.98;100.00;98013.50;1710135;75;685002;-72
2023/06/22 00:56:29;;;;;;;4.20;3.40;;;;;;;20.03;100.00;98012.66;1698445;75;922662;-73
2023/06/22 00:59:03;;;;;;;3.75;2.90;;;;;;;19.96;100.00;98005.72;1709148;75;676445;-71
2023/06/22 01:01:34;;;;;;;3.45;3.15;;;;;;;19.99;100.00;98001.13;1710872;75;675499;-74
2023/06/22 01:04:05;;;;;;;4.80;2.80;;;;;;;19.93;100.00;97987.31;1702913;75;676165;-75
2023/06/22 01:06:56;;;;;;;3.10;2.80;;;;;;;19.93;100.00;97995.66;1710129;75;669922;-72
2023/06/22 01:09:36;;;;;;;3.50;2.35;;;;;;;19.90;100.00;98002.28;1701174;75;743332;-74
2023/06/22 01:12:10;;;;;;;3.50;3.10;;;;;;;19.76;100.00;97997.97;1702101;75;673447;-74
2023/06/22 01:14:50;;;;;;;2.80;2.40;;;;;;;19.78;100.00;98000.97;1710543;75;687266;-74
2023/06/22 01:17:22;;;;;;;2.40;2.15;;;;;;;19.80;100.00;97995.63;1701826;75;706485;-72
2023/06/22 01:19:57;;;;;;;3.30;2.50;;;;;;;19.74;100.00;97997.75;1710327;75;673488;-74
2023/06/22 01:22:33;;;;;;;4.00;2.30;;;;;;;19.71;100.00;98010.66;1701623;75;743750;-73
2023/06/22 01:25:23;;;;;;;2.40;2.20;;;;;;;19.67;100.00;98015.00;1702840;75;672726;-68
2023/06/22 01:28:06;;;;;;;3.35;2.70;;;;;;;19.57;100.00;98018.16;1709376;75;768100;-70
2023/06/22 01:30:39;;;;;;;2.60;2.40;;;;;;;19.61;100.00;98019.91;1701774;75;753030;-71
2023/06/22 01:33:10;;;;;;;3.20;2.50;;;;;;;19.60;100.00;98010.81;1710592;75;669635;-72
2023/06/22 01:35:41;;;;;;;3.45;2.25;;;;;;;19.59;100.00;98010.06;1699618;75;819494;-75
2023/06/22 01:38:12;;;;;;;3.50;2.55;;;;;;;;;;1709716;75;687089;-73
2023/06/22 01:40:43;;;;;;;3.80;2.65;;;;;;;19.50;100.00;98013.22;1701513;75;744799;-74
2023/06/22 01:43:14;;;;;;;2.65;2.45;;;;;;;19.47;100.00;98019.84;1710017;75;702946;-73
2023/06/22 01:45:47;;;;;;;3.70;2.50;;;;;;;19.48;100.00;98012.25;1700871;75;756589;-71
2023/06/22 01:48:17;;;;;;;2.80;2.10;;;;;;;19.46;100.00;98007.25;1709944;75;671564;-73
2023/06/22 01:50:48;;;;;;;2.35;2.15;;;;;;;19.36;100.00;98006.91;1700986;75;756097;-71
2023/06/22 01:53:18;;;;;;;3.05;2.30;;;;;;;19.37;100.00;98010.41;1707900;75;866560;-73
2023/06/22 01:55:49;;;;;;;5.40;2.85;;;;;;;19.33;100.00;98019.03;1702019;75;747749;-76
2023/06/22 01:58:19;;;;;;;2.40;2.20;;;;;;;19.31;100.00;98010.50;1710100;75;680422;-75
2023/06/22 02:01:03;;;;;;;3.25;2.45;;;;;;;19.29;100.00;98001.94;1701142;75;745780;-72
2023/06/22 02:03:38;;;;;;;2.50;2.30;;;;;;;19.37;100.00;97997.28;1690102;75;1729957;-74
2023/06/22 02:06:17;;;;;;;2.70;2.50;;;;;;;19.29;100.00;98003.97;1710455;75;668830;-72
2023/06/22 02:08:57;;;;;;;2.50;2.30;;;;;;;19.22;100.00;98004.56;1701663;75;674426;-73
2023/06/22 02:11:30;;;;;;;2.65;2.40;;;;;;;19.22;100.00;98008.09;1701799;75;676717;-74
2023/06/22 02:14:01;;;;;;;3.30;2.30;;;;;;;19.20;100.00;98004.38;1709992;75;677606;-74
2023/06/22 02:16:35;;;;;;;2.70;2.10;;;;;;;19.20;100.00;98004.38;1702248;75;683739;-73
2023/06/22 02:19:06;;;;;;;3.40;2.40;;;;;;;19.14;100.00;98012.75;1710844;75;671588;-76
2023/06/22 02:21:37;;;;;;;2.60;2.40;;;;;;;19.13;100.00;98012.00;1702166;75;684527;-71
2023/06/22 02:24:08;;;;;;;3.40;2.20;;;;;;;19.13;100.00;98014.78;1709649;75;672146;-74
2023/06/22 02:26:42;;;;;;;3.30;2.50;;;;;;;19.09;100.00;98019.13;1702332;75;673887;-71
2023/06/22 02:29:12;;;;;;;2.70;2.20;;;;;;;19.08;100.00;98023.94;1710543;75;682746;-72
2023/06/22 02:31:45;;;;;;;3.20;2.60;;;;;;;18.96;100.00;98035.72;1702150;75;687038;-71
2023/06/22 02:34:17;;;;;;;3.40;2.70;;;;;;;18.96;100.00;98030.91;1710747;75;670114;-75
2023/06/22 02:36:50;;;;;;;2.85;2.50;;;;;;;19.02;100.00;98025.28;1703627;75;674664;-71
2023/06/22 02:39:23;;;;;;;3.20;2.80;;;;;;;18.89;100.00;98018.38;1711053;75;675318;-71
2023/06/22 02:41:54;;;;;;;2.90;2.55;;;;;;;18.92;100.00;98024.91;1701250;75;743400;-70
2023/06/22 02:44:25;;;;;;;3.25;2.75;;;;;;;18.95;100.00;98026.63;1710200;75;684250;-71
2023/06/22 02:46:58;;;;;;;2.90;2.50;;;;;;;18.91;100.00;98024.16;1700978;75;752790;-71
2023/06/22 02:49:28;;;;;;;7.80;4.50;;;;;;;18.70;100.00;98023.13;1710718;75;673669;-71
2023/06/22 02:51:59;;;;;;;4.75;3.80;;;;;;;18.83;100.00;98019.72;1701235;75;749421;-72
2023/06/22 02:54:29;;;;;;;3.20;2.90;;;;;;;18.89;100.00;98028.72;1710216;75;674492;-70
2023/06/22 02:57:02;;;;;;;3.45;3.15;;;;;;;18.79;100.00;98033.88;1700863;75;747095;-71
2023/06/22 02:59:32;;;;;;;4.80;3.80;;;;;;;18.80;100.00;98042.97;1710656;75;674122;-71
2023/06/22 03:02:05;;;;;;;3.80;3.40;;;;;;;18.82;100.00;98040.41;1701714;75;745941;-70
2023/06/22 03:04:36;;;;;;;3.80;3.20;;;;;;;18.80;100.00;98037.41;1710476;75;674726;-73
2023/06/22 03:07:07;;;;;;;3.70;3.30;;;;;;;18.78;100.00;98035.16;1701326;75;760046;-72
2023/06/22 03:09:37;;;;;;;3.10;2.80;;;;;;;18.81;100.00;98036.91;1709768;75;678318;-72
2023/06/22 03:12:08;;;;;;;3.40;3.05;;;;;;;18.75;100.00;98027.84;1700818;75;758903;-73
2023/06/22 03:14:38;;;;;;;7.95;6.75;;;;;;;18.76;100.00;98034.94;1710382;75;675046;-72
2023/06/22 03:17:13;;;;;;;6.35;5.75;;;;;;;18.71;100.00;98033.72;1700143;75;799530;-70
2023/06/22 03:19:43;;;;;;;10.70;8.50;;;;;;;18.68;100.00;98034.72;1710489;75;679826;-71
2023/06/22 03:22:14;;;;;;;10.80;8.25;;;;;;;18.75;100.00;98030.63;1701507;75;731434;-73
2023/06/22 03:24:45;;;;;;;8.10;6.60;;;;;;;18.84;100.00;98032.31;1710109;75;680769;-74
2023/06/22 03:27:15;;;;;;;14.45;9.65;;;;;;;18.79;100.00;98035.91;1701590;75;759444;-71
2023/06/22 03:29:45;;;;;;;14.95;9.60;;;;;;;18.80;100.00;98040.19;1710060;75;671145;-71
2023/06/22 03:32:18;;;;;;;13.80;8.90;;;;;;;18.93;100.00;98046.56;1701517;75;750062;-72
2023/06/22 03:34:49;;;;;;;9.40;6.90;;;;;;;19.02;100.00;98041.94;1709714;75;709762;-75
2023/06/22 03:37:21;;;;;;;6.00;5.35;;;;;;;19.03;100.00;98035.88;1701795;75;748843;-70
2023/06/22 03:39:51;;;;;;;5.20;4.70;;;;;;;19.00;100.00;98036.91;1710194;75;676642;-73
2023/06/22 03:42:22;;;;;;;4.95;4.10;;;;;;;19.08;100.00;98028.75;1701456;75;743300;-71
2023/06/22 03:44:52;;;;;;;4.40;4.00;;;;;;;19.11;100.00;98038.78;1710786;75;673774;-74
2023/06/22 03:47:25;;;;;;;8.80;5.95;;;;;;;18.80;100.00;98040.94;1702583;75;735843;-75
2023/06/22 03:49:55;;;;;;;10.15;8.25;;;;;;;18.92;100.00;98036.75;1711216;75;686071;-75
2023/06/22 03:52:25;;;;;;;10.20;6.05;;;;;;;19.02;100.00;98036.38;1701644;75;750898;-70
2023/06/22 03:54:56;;;;;;;5.35;4.85;;;;;;;19.12;100.00;98040.28;1710733;75;674081;-73
2023/06/22 03:57:26;;;;;;;5.30;4.55;;;;;;;19.20;100.00;98032.88;1701419;75;754036;-71
2023/06/22 03:59:57;;;;;;;3.70;3.05;;;;;;;19.16;100.00;98041.47;1710818;75;671483;-72
2023/06/22 04:02:30;;;;;;;4.55;3.80;;;;;;;19.12;100.00;98034.72;1700802;75;749195;-74
2023/06/22 04:05:00;;;;;;;7.30;6.40;;;;;;;19.03;100.00;98033.09;1710031;75;676495;-71
2023/06/22 04:07:30;;;;;;;6.50;5.60;;;;;;;19.15;100.00;98028.88;1701952;75;725930;-71
2023/06/22 04:10:01;;;;;;;5.25;4.60;;;;;;;19.26;100.00;98033.53;1710166;75;681247;-71
2023/06/22 04:12:31;;;;;;;5.20;4.30;;;;;;;19.27;100.00;98043.38;1697491;75;992287;-73
2023/06/22 04:15:01;;;;;;;4.20;3.80;;;;;;;19.24;100.00;98036.09;1710314;75;680219;-72
2023/06/22 04:17:34;;;;;;;4.50;4.05;;;;;;;19.26;100.00;98032.78;1701390;75;751030;-71
2023/06/22 04:20:04;;;;;;;7.10;6.10;;;;;;;19.20;100.00;98030.09;1710149;75;677038;-72
2023/06/22 04:22:35;;;;;;;12.40;8.45;;;;;;;19.16;100.00;98026.84;1701974;75;742479;-72
2023/06/22 04:25:05;;;;;;;14.45;9.35;;;;;;;19.23;100.00;98029.03;1710636;75;678377;-70
2023/06/22 04:27:36;;;;;;;12.80;10.10;;;;;;;19.30;100.00;98027.69;1701271;75;749042;-73
2023/06/22 04:30:12;;;;;;;12.50;9.50;;;;;;;19.30;100.00;98024.91;1710529;75;693012;-72
2023/06/22 04:32:45;;;;;;;15.35;9.80;;;;;;;19.41;100.00;98021.97;1701846;75;742628;-74
2023/06/22 04:35:15;;;;;;;14.95;10.80;;;;;;;19.27;100.00;98020.41;1710731;75;679904;-71
2023/06/22 04:37:49;;;;;;;11.95;10.25;;;;;;;19.44;100.00;98028.50;1701343;75;774886;-74
2023/06/22 04:40:20;;;;;;;20.30;12.20;;;;;;;19.39;100.00;98030.06;1710023;75;687883;-72
2023/06/22 04:42:53;;;;;;;13.85;9.95;;;;;;;19.55;100.00;98031.09;1701257;75;756907;-72
2023/06/22 04:45:24;;;;;;;14.85;11.15;;;;;;;19.52;100.00;98032.91;1710854;75;678113;-71
2023/06/22 04:47:57;;;;;;;14.90;10.95;;;;;;;19.61;100.00;98026.22;1701448;75;750311;-73
2023/06/22 04:50:27;;;;;;;13.00;9.90;;;;;;;19.71;100.00;98019.00;1710257;75;673425;-71
2023/06/22 04:52:57;;;;;;;16.75;11.25;;;;;;;19.67;100.00;98020.56;1700957;75;753851;-75
2023/06/22 04:55:28;;;;;;;15.15;10.85;;;;;;;19.68;100.00;98022.09;1710089;75;706187;-75
2023/06/22 04:58:04;;;;;;;16.20;11.55;;;;;;;19.70;100.00;98030.63;1701308;75;753911;-74
2023/06/22 05:00:36;;;;;;;15.30;11.60;;;;;;;19.74;100.00;98014.41;1686797;75;1942612;-70
2023/06/22 05:03:10;;;;;;;14.75;10.60;;;;;;;19.90;100.00;98016.16;1710092;75;684265;-74
2023/06/22 05:05:41;;;;;;;14.00;10.70;;;;;;;19.94;100.00;98005.50;1688542;75;1877100;-73
2023/06/22 05:08:11;;;;;;;13.00;10.90;;;;;;;19.81;100.00;98016.56;1709986;75;674909;-76
2023/06/22 05:10:41;;;;;;;13.30;11.30;;;;;;;19.86;100.00;98010.16;1701617;75;753353;-76
2023/06/22 05:13:11;;;;;;;16.15;11.90;;;;;;;19.98;100.00;98014.25;1710202;75;676038;-75
2023/06/22 05:15:41;;;;;;;13.65;11.35;;;;;;;20.17;100.00;98014.19;1702621;75;678202;-75
2023/06/22 05:18:14;;;;;;;13.80;11.80;;;;;;;20.28;100.00;98004.91;1710650;75;676192;-73
2023/06/22 05:20:44;;;;;;;16.35;11.10;;;;;;;20.31;100.00;98003.81;1702868;75;674513;-75
2023/06/22 05:23:15;;;;;;;14.30;11.20;;;;;;;20.43;100.00;98005.09;1710584;75;676968;-77
2023/06/22 05:25:45;;;;;;;13.60;11.30;;;;;;;20.51;100.00;98007.97;1699983;75;881877;-76
2023/06/22 05:28:15;;;;;;;12.90;10.20;;;;;;;20.68;100.00;98007.69;1707258;75;913072;-72
2023/06/22 05:30:45;;;;;;;16.45;11.65;;;;;;;20.54;100.00;98000.59;1700923;75;815171;-72
2023/06/22 05:33:18;;;;;;;12.70;10.50;;;;;;;20.63;100.00;97995.38;1710702;75;680590;-74
2023/06/22 05:35:48;;;;;;;17.95;11.10;;;;;;;20.63;100.00;97995.38;1702439;75;678088;-75
2023/06/22 05:38:19;;;;;;;18.00;12.00;;;;;;;20.77;100.00;97998.16;1708812;75;788183;-76
2023/06/22 05:40:49;;;;;;;11.20;9.80;;;;;;;20.99;100.00;98002.50;1701986;75;671948;-74
2023/06/22 05:43:19;;;;;;;14.40;10.30;;;;;;;21.13;100.00;98000.44;1710096;75;675356;-75
2023/06/22 05:45:50;;;;;;;11.80;10.40;;;;;;;21.14;100.00;98002.69;1702111;75;673899;-76
2023/06/22 05:48:22;;;;;;;13.90;10.30;;;;;;;21.27;100.00;98005.41;1710190;75;677249;-75
2023/06/22 05:50:53;;;;;;;12.50;10.70;;;;;;;21.24;100.00;98002.97;1702800;75;679709;-75
2023/06/22 05:53:23;;;;;;;15.10;11.30;;;;;;;21.51;100.00;98000.84;1710329;75;684603;-75
2023/06/22 05:55:54;;;;;;;15.30;10.60;;;;;;;21.57;100.00;97997.94;1702357;75;672922;-74
2023/06/22 05:58:24;;;;;;;15.70;11.80;;;;;;;21.66;100.00;98000.25;1708404;75;849377;-74
2023/06/22 06:00:54;;;;;;;16.45;11.80;;;;;;;21.59;100.00;97998.88;1702015;75;676486;-74
2023/06/22 06:03:28;;;;;;;15.10;11.10;;;;;;;21.80;100.00;97992.56;1696473;75;1847184;-73
2023/06/22 06:05:59;;;;;;;13.40;10.00;;;;;;;22.02;100.00;97992.00;1701787;75;742115;-74
2023/06/22 06:08:30;;;;;;;13.20;11.00;;;;;;;22.07;100.00;97993.88;1710392;75;677047;-73
2023/06/22 06:11:00;;;;;;;9.80;8.65;;;;;;;22.30;100.00;97994.06;1701810;75;749759;-73
2023/06/22 06:13:31;;;;;;;13.80;9.90;;;;;;;22.12;100.00;97983.88;1710062;75;673539;-77
2023/06/22 06:16:01;;;;;;;12.40;9.05;;;;;;;22.30;100.00;97991.28;1700964;75;741829;-78
2023/06/22 06:18:41;;;;;;;12.60;9.20;;;;;;;22.40;100.00;97988.72;1710122;75;671803;-78
2023/06/22 06:21:11;;;;;;;10.00;8.15;;;;;;;22.57;100.00;97987.53;1700804;75;760382;-73
2023/06/22 06:23:42;;;;;;;13.30;9.50;;;;;;;22.60;100.00;97994.78;1706683;75;982166;-74
2023/06/22 06:26:12;;;;;;;13.30;10.10;;;;;;;22.65;100.00;97991.09;1701454;75;743661;-78
2023/06/22 06:28:42;;;;;;;8.70;7.70;;;;;;;22.81;100.00;97981.50;1710552;75;675988;-77
2023/06/22 06:31:16;;;;;;;8.70;6.50;;;;;;;23.06;100.00;97986.63;1700775;75;752011;-74
2023/06/22 06:33:49;;;;;;;7.80;5.90;;;;;;;23.22;100.00;97974.19;1710145;75;675323;-73
2023/06/22 06:36:20;;;;;;;13.25;9.40;;;;;;;22.86;100.00;97975.00;1688825;75;1712617;-77
2023/06/22 06:38:50;;;;;;;9.60;8.10;;;;;;;23.18;100.00;97968.22;1708247;75;826615;-75
2023/06/22 06:41:21;;;;;;;8.75;6.45;;;;;;;23.27;100.00;97966.94;1701092;75;750684;-73
2023/06/22 06:43:51;;;;;;;12.10;8.80;;;;;;;23.32;100.00;97963.97;1709910;75;709365;-74
2023/06/22 06:46:22;;;;;;;14.80;8.30;;;;;;;23.59;100.00;97964.38;1701299;75;746782;-74
2023/06/22 06:48:55;;;;;;;10.10;7.50;;;;;;;23.72;100.00;97965.50;1709695;75;677473;-75
2023/06/22 06:51:25;;;;;;;7.55;5.75;;;;;;;23.93;100.00;97968.13;1701809;75;755105;-72
2023/06/22 06:53:55;;;;;;;10.50;6.45;;;;;;;23.89;100.00;97970.56;1709982;75;671013;-74
2023/06/22 06:56:25;;;;;;;14.40;8.50;;;;;;;23.85;100.00;97965.34;1698221;75;936467;-75
2023/06/22 06:58:55;;;;;;;9.75;7.25;;;;;;;24.15;100.00;97961.78;1709657;75;672159;-74
2023/06/22 07:01:26;;;;;;;8.75;6.75;;;;;;;24.32;100.00;97949.97;1701597;75;743150;-76
2023/06/22 07:03:58;;;;;;;12.75;8.85;;;;;;;24.08;100.00;97950.59;1710165;75;671940;-74
2023/06/22 07:06:32;;;;;;;10.50;8.85;;;;;;;24.31;100.00;97961.72;1701007;75;743394;-74
2023/06/22 07:09:03;;;;;;;10.05;7.95;;;;;;;24.38;100.00;97958.91;1709666;75;672289;-76
2023/06/22 07:11:33;;;;;;;9.40;7.55;;;;;;;24.70;100.00;97960.31;1700909;75;752002;-75
2023/06/22 07:14:03;;;;;;;9.40;7.40;;;;;;;24.78;100.00;97954.69;1710617;75;673407;-75
2023/06/22 07:16:33;;;;;;;10.70;6.65;;;;;;;24.96;100.00;97953.47;1701796;75;737601;-73
2023/06/22 07:19:06;;;;;;;7.50;5.55;;;;;;;25.02;100.00;97942.81;1710286;75;672108;-77
2023/06/22 07:21:36;;;;;;;7.75;5.80;;;;;;;25.06;98.34;97948.78;1702055;75;742847;-74
2023/06/22 07:24:08;;;;;;;9.20;6.20;;;;;;;25.23;100.00;97950.19;1711437;75;677984;-77
2023/06/22 07:26:38;;;;;;;6.75;5.45;;;;;;;25.40;98.91;97947.47;1701432;75;763130;-75
2023/06/22 07:29:09;;;;;;;7.10;5.80;;;;;;;25.39;94.28;97948.75;1710415;75;673540;-76
2023/06/22 07:31:40;;;;;;;6.00;5.40;;;;;;;25.62;96.79;97943.00;1699590;75;755662;-74
2023/06/22 07:34:13;;;;;;;5.80;4.90;;;;;;;25.79;94.69;97939.50;1709404;75;709576;-77
2023/06/22 07:36:43;;;;;;;6.30;5.15;;;;;;;25.92;91.11;97942.00;1701143;75;749208;-77
2023/06/22 07:39:14;;;;;;;10.15;6.70;;;;;;;25.86;89.84;97930.28;1710267;75;676120;-75
2023/06/22 07:41:48;;;;;;;6.30;5.40;;;;;;;26.07;90.74;97940.38;1698699;75;897748;-74
2023/06/22 07:44:18;;;;;;;9.50;6.10;;;;;;;26.08;89.36;97942.63;1710313;75;673577;-74
2023/06/22 07:46:48;;;;;;;8.70;6.10;;;;;;;26.22;89.25;97940.22;1686902;75;1892713;-76
2023/06/22 07:49:22;;;;;;;6.10;5.50;;;;;;;26.41;88.06;97945.28;1710121;75;678208;-75
2023/06/22 07:51:52;;;;;;;9.35;5.95;;;;;;;26.31;89.49;97936.78;1700792;75;750511;-74
2023/06/22 07:54:22;;;;;;;9.70;7.20;;;;;;;26.21;87.07;97941.53;1709694;75;689881;-72
2023/06/22 07:56:53;;;;;;;11.40;7.60;;;;;;;26.16;89.28;97934.09;1698510;75;911354;-75
2023/06/22 07:59:23;;;;;;;7.10;6.40;;;;;;;26.20;88.64;97942.88;1710249;75;673230;-73
2023/06/22 08:01:53;;;;;;;8.00;6.60;;;;;;;26.19;88.69;97941.38;1701367;75;746988;-73
2023/06/22 08:04:27;;;;;;;11.05;6.80;;;;;;;26.09;84.28;97929.31;1709771;75;690001;-76
2023/06/22 08:06:57;;;;;;;8.55;5.95;;;;;;;26.31;85.95;97936.00;1701400;75;768013;-76
2023/06/22 08:09:27;;;;;;;7.00;5.40;;;;;;;26.39;84.33;97933.88;1710727;75;674604;-76
2023/06/22 08:11:58;;;;;;;8.60;6.25;;;;;;;26.53;82.66;97932.25;1702058;75;746668;-78
2023/06/22 08:14:29;;;;;;;8.80;6.30;;;;;;;26.65;85.85;97932.47;1698571;75;1672943;-73
2023/06/22 08:16:59;;;;;;;9.50;6.45;;;;;;;26.60;81.42;97932.72;1701167;75;740658;-77
2023/06/22 08:19:32;;;;;;;8.65;6.65;;;;;;;26.58;83.35;97926.94;1709966;75;681433;-77
2023/06/22 08:22:02;;;;;;;11.60;6.85;;;;;;;26.58;79.97;97932.53;1701639;75;758458;-75
2023/06/22 08:24:38;;;;;;;8.70;6.20;;;;;;;26.66;79.54;97927.59;1708880;75;833801;-79
2023/06/22 08:27:11;;;;;;;8.00;6.30;;;;;;;26.90;81.32;97925.97;1701112;75;729211;-78
2023/06/22 08:29:42;;;;;;;7.95;6.40;;;;;;;26.95;81.22;97914.47;1708026;75;904967;-77
2023/06/22 08:32:13;;;;;;;9.55;6.45;;;;;;;27.06;82.00;97921.63;1700853;75;769929;-74
2023/06/22 08:34:46;;;;;;;13.85;6.90;;;;;;;26.90;79.62;97931.59;1710915;75;682061;-77
2023/06/22 08:37:16;;;;;;;9.45;6.80;;;;;;;27.02;78.21;97924.13;1701789;75;765381;-76
2023/06/22 08:39:46;;;;;;;7.00;6.30;;;;;;;27.09;79.71;97917.66;1709105;75;839525;-74
2023/06/22 08:42:16;;;;;;;6.10;5.45;;;;;;;27.37;77.68;97918.38;1702325;75;740380;-76
2023/06/22 08:44:47;;;;;;;9.50;6.05;;;;;;;27.41;77.01;97915.88;1686921;75;2812343;-76
2023/06/22 08:47:17;;;;;;;8.35;6.40;;;;;;;27.31;77.75;97915.09;1702295;75;734306;-79
2023/06/22 08:49:50;;;;;;;8.80;6.70;;;;;;;27.79;75.64;97918.06;1711409;75;678683;-79
2023/06/22 08:52:20;;;;;;;7.50;5.70;;;;;;;27.99;74.24;97913.22;1701911;75;747713;-75
2023/06/22 08:54:51;;;;;;;7.80;6.30;;;;;;;27.19;77.72;97909.28;1710246;75;673976;-77
2023/06/22 08:57:21;;;;;;;9.95;7.40;;;;;;;27.12;79.60;97907.31;1701115;75;743798;-74
2023/06/22 08:59:52;;;;;;;10.95;7.50;;;;;;;27.56;78.29;97910.00;1710147;75;672821;-77
2023/06/22 09:02:23;;;;;;;7.25;5.95;;;;;;;28.13;79.34;97902.28;1700621;75;751453;-75
2023/06/22 09:04:56;;;;;;;8.15;5.85;;;;;;;28.08;74.79;97902.59;1709683;75;680199;-76
2023/06/22 09:07:26;;;;;;;6.40;5.80;;;;;;;28.32;73.22;97901.53;1700449;75;735609;-77
2023/06/22 09:09:57;;;;;;;12.45;7.20;;;;;;;28.21;74.59;97902.13;1710309;75;677501;-76
2023/06/22 09:12:30;;;;;;;8.80;6.20;;;;;;;28.48;74.55;97909.72;1700626;75;741069;-76
2023/06/22 09:15:00;;;;;;;8.90;6.30;;;;;;;28.13;73.64;97905.09;1710648;75;676004;-77
2023/06/22 09:17:31;;;;;;;8.85;6.50;;;;;;;28.79;72.38;97902.13;1701293;75;747803;-76
2023/06/22 09:20:05;;;;;;;6.20;5.40;;;;;;;29.08;72.50;97895.69;1710083;75;696848;-75
2023/06/22 09:22:36;;;;;;;7.20;5.30;;;;;;;29.40;69.63;97896.44;1701118;75;760301;-77
2023/06/22 09:25:07;;;;;;;9.00;6.00;;;;;;;29.19;68.04;97900.66;1710183;75;677116;-77
2023/06/22 09:27:37;;;;;;;13.20;6.10;;;;;;;29.15;68.58;97899.66;1701927;75;736923;-75
2023/06/22 09:30:10;;;;;;;9.20;6.10;;;;;;;29.25;66.23;97900.38;1710602;75;673234;-77
2023/06/22 09:32:40;;;;;;;6.45;4.65;;;;;;;29.77;67.29;97898.94;1700838;75;739097;-76
2023/06/22 09:35:13;;;;;;;11.05;6.50;;;;;;;29.43;67.30;97898.06;1709715;75;675263;-74
2023/06/22 09:37:44;;;;;;;6.85;5.40;;;;;;;29.40;66.14;97887.97;1700817;75;758159;-77
2023/06/22 09:40:16;;;;;;;6.40;5.30;;;;;;;29.82;68.39;97890.13;1709661;75;684648;-76
2023/06/22 09:42:47;;;;;;;6.40;5.20;;;;;;;29.92;65.95;97890.81;1701365;75;747164;-76
2023/06/22 09:45:17;;;;;;;6.00;4.80;;;;;;;30.27;64.15;97881.06;1710284;75;674417;-77
2023/06/22 09:47:47;;;;;;;10.10;7.60;;;;;;;28.85;68.55;97880.00;1699165;75;890614;-76
2023/06/22 09:50:20;;;;;;;8.20;6.50;;;;;;;30.04;66.26;97881.66;1710267;75;680593;-75
2023/06/22 09:52:54;;;;;;;6.70;6.00;;;;;;;30.22;64.00;97876.47;1701611;75;756077;-74
2023/06/22 09:55:25;;;;;;;8.40;5.70;;;;;;;30.06;62.73;97879.69;1707202;75;949388;-78
2023/06/22 09:57:55;;;;;;;8.40;5.00;;;;;;;30.30;61.72;97877.00;1700529;75;750682;-75
2023/06/22 10:00:26;;;;;;;7.20;5.00;;;;;;;29.77;61.72;97867.88;1709902;75;680127;-79
2023/06/22 10:02:57;;;;;;;10.80;6.35;;;;;;;29.30;64.46;97871.09;1701268;75;749209;-77
2023/06/22 10:05:30;;;;;;;8.30;5.60;;;;;;;30.22;63.44;97865.16;1709737;75;676892;-75
2023/06/22 10:08:00;;;;;;;5.85;4.95;;;;;;;30.34;62.29;97865.97;1701373;75;750549;-76
2023/06/22 10:10:30;;;;;;;8.00;4.90;;;;;;;30.24;63.54;97862.47;1710325;75;677944;-76
2023/06/22 10:13:10;;;;;;;9.05;6.85;;;;;;;29.74;63.82;97864.19;1700701;75;750757;-77
2023/06/22 10:15:41;;;;;;;9.65;6.75;;;;;;;30.04;62.36;97873.94;1701964;75;680015;-75
2023/06/22 10:18:11;;;;;;;10.30;6.30;;;;;;;30.21;62.07;97870.09;1710084;75;672918;-77
2023/06/22 10:20:44;;;;;;;6.00;4.80;;;;;;;30.70;63.32;97864.00;1701503;75;694782;-75
2023/06/22 10:23:14;;;;;;;9.10;5.40;;;;;;;30.48;64.79;97861.25;1710203;75;675219;-76
2023/06/22 10:25:44;;;;;;;7.00;5.00;;;;;;;30.98;63.30;97851.66;1688753;75;1788884;-78
2023/06/22 10:28:16;;;;;;;7.85;6.05;;;;;;;30.83;61.43;97854.94;1708437;75;772277;-75
2023/06/22 10:30:46;;;;;;;;;;;;;;;30.85;61.58;97852.25;1698343;75;976549;-78
2023/06/22 10:33:17;;;;;;;5.70;4.70;;;;;;;31.41;60.69;97845.78;1709807;75;675266;-77
2023/06/22 10:35:52;;;;;;;8.90;6.00;;;;;;;30.99;59.09;97844.63;1701780;75;679089;-75
2023/06/22 10:38:25;;;;;;;8.00;5.60;;;;;;;31.10;61.13;97842.41;1706764;75;954682;-79
2023/06/22 10:40:55;;;;;;;7.00;5.30;;;;;;;31.28;60.43;97849.19;1701740;75;686210;-76
2023/06/22 10:43:25;;;;;;;9.45;5.85;;;;;;;31.31;58.83;97839.47;1709648;75;675055;-79
2023/06/22 10:45:55;;;;;;;7.05;5.80;;;;;;;31.24;60.19;97834.06;1701866;75;675557;-74
2023/06/22 10:48:26;;;;;;;6.45;5.85;;;;;;;31.26;59.67;97832.09;1710118;75;676861;-76
2023/06/22 10:51:01;;;;;;;7.90;5.70;;;;;;;31.36;60.02;97835.50;1702199;75;685612;-76
2023/06/22 10:53:31;;;;;;;9.90;7.10;;;;;;;31.50;59.96;97837.75;1710215;75;674072;-75
2023/06/22 10:56:01;;;;;;;8.00;6.00;;;;;;;31.41;58.80;97833.69;1701331;75;745065;-76
2023/06/22 10:58:31;;;;;;;8.45;6.05;;;;;;;31.81;58.10;97837.44;1710146;75;674439;-75
2023/06/22 11:01:04;;;;;;;10.50;5.70;;;;;;;31.68;56.55;97824.69;1698228;75;929510;-76
2023/06/22 11:03:34;;;;;;;12.70;6.70;;;;;;;31.20;58.62;97823.97;1696003;75;1866532;-77
2023/06/22 11:06:07;;;;;;;6.80;6.05;;;;;;;31.44;57.73;97821.16;1700455;75;743466;-78
2023/06/22 11:08:37;;;;;;;10.95;6.15;;;;;;;31.23;59.06;97833.31;1709481;75;745745;-75
2023/06/22 11:11:08;;;;;;;6.40;5.80;;;;;;;31.31;59.32;97816.09;1700071;75;785859;-78
2023/06/22 11:13:38;;;;;;;9.90;6.10;;;;;;;31.55;59.34;97819.66;1709893;75;679013;-75
2023/06/22 11:16:08;;;;;;;8.50;6.70;;;;;;;31.38;58.22;97809.44;1700164;75;747059;-77
2023/06/22 11:18:38;;;;;;;7.55;5.50;;;;;;;31.72;58.71;97816.41;1709295;75;680599;-78
2023/06/22 11:21:11;;;;;;;9.35;6.35;;;;;;;31.70;58.82;97818.38;1700375;75;741211;-77
2023/06/22 11:23:41;;;;;;;8.60;6.00;;;;;;;31.97;58.86;97815.00;1710344;75;672269;-75
2023/06/22 11:26:12;;;;;;;6.60;5.90;;;;;;;31.66;58.06;97815.34;1698878;75;873409;-78
2023/06/22 11:28:44;;;;;;;8.80;6.20;;;;;;;31.94;56.65;97805.63;1709708;75;677032;-77
2023/06/22 11:31:14;;;;;;;10.10;6.40;;;;;;;31.76;56.77;97799.66;1700952;75;734087;-78
2023/06/22 11:33:45;;;;;;;8.00;5.75;;;;;;;32.21;56.92;97805.06;1708098;75;811620;-75
2023/06/22 11:36:19;;;;;;;7.70;5.50;;;;;;;32.30;57.37;97811.88;1698523;75;848266;-79